sensor_id;sensor_type;location;lat;lon;timestamp;pressure;altitude;pressure_sealevel;temperature;humidity
7760;BME280;3924;48.830;9.262;2023-11-22T00:02:08;98920.03;;;7.24;93.34
7760;BME280;3924;48.830;9.262;2023-11-22T00:04:34;98922.63;;;7.04;92.98
7760;BME280;3924;48.830;9.262;2023-11-22T00:07:01;98925.28;;;6.94;93.53
7760;BME280;3924;48.830;9.262;2023-11-22T00:09:27;98930.63;;;6.89;93.62
7760;BME280;3924;48.830;9.262;2023-11-22T00:11:54;98929.00;;;6.88;93.80
7760;BME280;3924;48.830;9.262;2023-11-22T00:14:21;98937.63;;;6.90;93.77
7760;BME280;3924;48.830;9.262;2023-11-22T00:16:48;98940.59;;;6.88;93.78
7760;BME280;3924;48.830;9.262;2023-11-22T00:19:14;98933.31;;;6.89;94.05
7760;BME280;3924;48.830;9.262;2023-11-22T00:21:43;98945.72;;;6.90;93.59
7760;BME280;3924;48.830;9.262;2023-11-22T00:24:10;98946.25;;;6.92;94.11
7760;BME280;3924;48.830;9.262;2023-11-22T00:26:37;98952.69;;;6.85;93.52
7760;BME280;3924;48.830;9.262;2023-11-22T00:29:03;98938.06;;;6.76;93.73
7760;BME280;3924;48.830;9.262;2023-11-22T00:31:31;98944.78;;;6.74;93.73
7760;BME280;3924;48.830;9.262;2023-11-22T00:33:57;98943.38;;;6.66;93.57
7760;BME280;3924;48.830;9.262;2023-11-22T00:36:24;98947.69;;;6.67;93.97
7760;BME280;3924;48.830;9.262;2023-11-22T00:38:50;98960.09;;;6.68;94.10
7760;BME280;3924;48.830;9.262;2023-11-22T00:41:17;98961.13;;;6.62;93.99
7760;BME280;3924;48.830;9.262;2023-11-22T00:43:44;98967.03;;;6.59;94.49
7760;BME280;3924;48.830;9.262;2023-11-22T00:46:10;98970.81;;;6.63;94.28
7760;BME280;3924;48.830;9.262;2023-11-22T00:48:37;98974.59;;;6.62;94.19
7760;BME280;3924;48.830;9.262;2023-11-22T00:51:04;98982.66;;;6.62;94.12
7760;BME280;3924;48.830;9.262;2023-11-22T00:53:35;98977.22;;;6.57;94.04
7760;BME280;3924;48.830;9.262;2023-11-22T00:56:03;98985.84;;;6.54;94.14
7760;BME280;3924;48.830;9.262;2023-11-22T00:58:31;98989.94;;;6.62;94.68
7760;BME280;3924;48.830;9.262;2023-11-22T01:00:58;98996.94;;;6.63;94.03
7760;BME280;3924;48.830;9.262;2023-11-22T01:03:25;99005.28;;;6.61;93.85
7760;BME280;3924;48.830;9.262;2023-11-22T01:05:52;98988.81;;;6.57;94.27
7760;BME280;3924;48.830;9.262;2023-11-22T01:08:19;98998.50;;;6.53;94.14
7760;BME280;3924;48.830;9.262;2023-11-22T01:10:46;99007.84;;;6.46;93.91
7760;BME280;3924;48.830;9.262;2023-11-22T01:13:13;99005.09;;;6.41;94.10
7760;BME280;3924;48.830;9.262;2023-11-22T01:15:41;99006.66;;;6.37;93.83
7760;BME280;3924;48.830;9.262;2023-11-22T01:18:08;99017.41;;;6.32;93.93
7760;BME280;3924;48.830;9.262;2023-11-22T01:20:34;99024.28;;;6.22;93.80
7760;BME280;3924;48.830;9.262;2023-11-22T01:23:01;99034.38;;;6.10;94.25
7760;BME280;3924;48.830;9.262;2023-11-22T01:25:27;99022.97;;;6.03;94.25
7760;BME280;3924;48.830;9.262;2023-11-22T01:27:54;99017.03;;;6.01;93.99
7760;BME280;3924;48.830;9.262;2023-11-22T01:30:21;99020.88;;;6.05;94.43
7760;BME280;3924;48.830;9.262;2023-11-22T01:32:48;99031.66;;;6.10;94.65
7760;BME280;3924;48.830;9.262;2023-11-22T01:35:15;99028.50;;;6.13;93.99
7760;BME280;3924;48.830;9.262;2023-11-22T01:37:42;99031.06;;;6.03;93.62
7760;BME280;3924;48.830;9.262;2023-11-22T01:40:09;99027.00;;;6.00;94.61
7760;BME280;3924;48.830;9.262;2023-11-22T01:42:35;99032.06;;;5.97;93.70
7760;BME280;3924;48.830;9.262;2023-11-22T01:45:03;99031.50;;;5.95;94.38
7760;BME280;3924;48.830;9.262;2023-11-22T01:47:31;99032.31;;;5.95;94.28
7760;BME280;3924;48.830;9.262;2023-11-22T01:49:58;99046.84;;;5.94;94.04
7760;BME280;3924;48.830;9.262;2023-11-22T01:52:25;99052.28;;;5.99;94.44
7760;BME280;3924;48.830;9.262;2023-11-22T01:54:51;99058.97;;;5.97;94.39
7760;BME280;3924;48.830;9.262;2023-11-22T01:57:19;99060.28;;;5.94;94.09
7760;BME280;3924;48.830;9.262;2023-11-22T01:59:46;99065.38;;;5.91;93.68
7760;BME280;3924;48.830;9.262;2023-11-22T02:02:14;99068.94;;;5.80;93.74
7760;BME280;3924;48.830;9.262;2023-11-22T02:04:40;99069.94;;;5.73;94.38
7760;BME280;3924;48.830;9.262;2023-11-22T02:07:07;99081.69;;;5.67;93.86
7760;BME280;3924;48.830;9.262;2023-11-22T02:09:34;99083.97;;;5.59;94.11
7760;BME280;3924;48.830;9.262;2023-11-22T02:12:00;99090.50;;;5.63;94.23
7760;BME280;3924;48.830;9.262;2023-11-22T02:14:27;99093.50;;;5.66;94.47
7760;BME280;3924;48.830;9.262;2023-11-22T02:16:54;99101.06;;;5.69;94.18
7760;BME280;3924;48.830;9.262;2023-11-22T02:19:20;99103.72;;;5.64;93.81
7760;BME280;3924;48.830;9.262;2023-11-22T02:21:47;99105.97;;;5.56;93.63
7760;BME280;3924;48.830;9.262;2023-11-22T02:24:13;99117.22;;;5.53;93.63
7760;BME280;3924;48.830;9.262;2023-11-22T02:26:44;99115.78;;;5.45;93.68
7760;BME280;3924;48.830;9.262;2023-11-22T02:29:12;99118.72;;;5.43;93.66
7760;BME280;3924;48.830;9.262;2023-11-22T02:31:42;99120.09;;;5.46;94.02
7760;BME280;3924;48.830;9.262;2023-11-22T02:34:09;99131.09;;;5.44;94.21
7760;BME280;3924;48.830;9.262;2023-11-22T02:36:36;99132.88;;;5.39;93.72
7760;BME280;3924;48.830;9.262;2023-11-22T02:39:03;99128.00;;;5.36;94.10
7760;BME280;3924;48.830;9.262;2023-11-22T02:41:29;99130.28;;;5.44;93.98
7760;BME280;3924;48.830;9.262;2023-11-22T02:43:56;99121.81;;;5.52;94.38
7760;BME280;3924;48.830;9.262;2023-11-22T02:46:23;99124.75;;;5.51;93.87
7760;BME280;3924;48.830;9.262;2023-11-22T02:48:50;99131.09;;;5.44;93.90
7760;BME280;3924;48.830;9.262;2023-11-22T02:51:16;99141.66;;;5.34;93.90
7760;BME280;3924;48.830;9.262;2023-11-22T02:53:43;99145.41;;;5.33;94.00
7760;BME280;3924;48.830;9.262;2023-11-22T02:56:12;99141.91;;;5.33;93.85
7760;BME280;3924;48.830;9.262;2023-11-22T02:58:38;99146.72;;;5.31;93.72
7760;BME280;3924;48.830;9.262;2023-11-22T03:01:05;99152.41;;;5.34;94.13
7760;BME280;3924;48.830;9.262;2023-11-22T03:03:32;99149.97;;;5.33;93.75
7760;BME280;3924;48.830;9.262;2023-11-22T03:05:59;99168.72;;;5.28;93.41
7760;BME280;3924;48.830;9.262;2023-11-22T03:08:25;99160.56;;;5.22;93.95
7760;BME280;3924;48.830;9.262;2023-11-22T03:10:53;99164.31;;;5.21;93.92
7760;BME280;3924;48.830;9.262;2023-11-22T03:13:20;99171.34;;;5.22;93.85
7760;BME280;3924;48.830;9.262;2023-11-22T03:15:46;99178.56;;;5.22;93.64
7760;BME280;3924;48.830;9.262;2023-11-22T03:18:13;99177.66;;;5.16;93.67
7760;BME280;3924;48.830;9.262;2023-11-22T03:20:39;99183.03;;;5.16;93.73
7760;BME280;3924;48.830;9.262;2023-11-22T03:23:09;99186.59;;;5.05;93.16
7760;BME280;3924;48.830;9.262;2023-11-22T03:25:37;99190.09;;;5.06;93.64
7760;BME280;3924;48.830;9.262;2023-11-22T03:28:03;99182.78;;;5.01;93.35
7760;BME280;3924;48.830;9.262;2023-11-22T03:30:30;99189.84;;;5.07;93.92
7760;BME280;3924;48.830;9.262;2023-11-22T03:32:56;99194.09;;;5.03;93.18
7760;BME280;3924;48.830;9.262;2023-11-22T03:35:23;99200.97;;;4.99;93.29
7760;BME280;3924;48.830;9.262;2023-11-22T03:37:49;99199.47;;;5.03;93.34
7760;BME280;3924;48.830;9.262;2023-11-22T03:40:16;99205.09;;;5.02;93.72
7760;BME280;3924;48.830;9.262;2023-11-22T03:42:42;99199.47;;;5.03;93.34
7760;BME280;3924;48.830;9.262;2023-11-22T03:45:09;99214.28;;;5.06;93.37
7760;BME280;3924;48.830;9.262;2023-11-22T03:47:35;99219.19;;;5.09;93.48
7760;BME280;3924;48.830;9.262;2023-11-22T03:50:06;99230.06;;;5.02;92.80
7760;BME280;3924;48.830;9.262;2023-11-22T03:52:33;99230.22;;;4.96;93.26
7760;BME280;3924;48.830;9.262;2023-11-22T03:54:59;99234.66;;;4.90;93.23
7760;BME280;3924;48.830;9.262;2023-11-22T03:57:26;99236.88;;;4.93;93.07
7760;BME280;3924;48.830;9.262;2023-11-22T03:59:52;99234.84;;;5.00;93.48
7760;BME280;3924;48.830;9.262;2023-11-22T04:02:19;99232.16;;;5.00;92.93
7760;BME280;3924;48.830;9.262;2023-11-22T04:04:45;99227.19;;;4.92;92.62
7760;BME280;3924;48.830;9.262;2023-11-22T04:07:12;99236.88;;;4.93;93.29
7760;BME280;3924;48.830;9.262;2023-11-22T04:09:38;99231.69;;;5.03;93.66
7760;BME280;3924;48.830;9.262;2023-11-22T04:12:05;99233.09;;;5.06;92.92
7760;BME280;3924;48.830;9.262;2023-11-22T04:14:32;99241.03;;;5.01;92.53
7760;BME280;3924;48.830;9.262;2023-11-22T04:16:59;99244.47;;;4.96;92.86
7760;BME280;3924;48.830;9.262;2023-11-22T04:19:26;99249.69;;;5.03;93.19
7760;BME280;3924;48.830;9.262;2023-11-22T04:21:53;99246.53;;;5.06;92.78
7760;BME280;3924;48.830;9.262;2023-11-22T04:24:21;99259.16;;;5.05;92.62
7760;BME280;3924;48.830;9.262;2023-11-22T04:26:47;99258.56;;;5.03;92.57
7760;BME280;3924;48.830;9.262;2023-11-22T04:29:14;99259.38;;;5.04;92.59
7760;BME280;3924;48.830;9.262;2023-11-22T04:31:42;99263.13;;;5.03;92.59
7760;BME280;3924;48.830;9.262;2023-11-22T04:34:09;99265.00;;;5.02;92.85
7760;BME280;3924;48.830;9.262;2023-11-22T04:36:35;99272.47;;;5.00;92.49
7760;BME280;3924;48.830;9.262;2023-11-22T04:39:02;99272.47;;;5.00;92.40
7760;BME280;3924;48.830;9.262;2023-11-22T04:41:30;99271.91;;;4.98;92.53
7760;BME280;3924;48.830;9.262;2023-11-22T04:43:56;99278.91;;;4.99;92.30
7760;BME280;3924;48.830;9.262;2023-11-22T04:46:23;99286.84;;;4.94;92.26
7760;BME280;3924;48.830;9.262;2023-11-22T04:48:51;99285.97;;;4.88;92.09
7760;BME280;3924;48.830;9.262;2023-11-22T04:51:18;99281.84;;;4.86;92.41
7760;BME280;3924;48.830;9.262;2023-11-22T04:53:44;99292.03;;;4.84;92.26
7760;BME280;3924;48.830;9.262;2023-11-22T04:56:11;99291.47;;;4.82;92.38
7760;BME280;3924;48.830;9.262;2023-11-22T04:58:37;99296.72;;;4.77;92.14
7760;BME280;3924;48.830;9.262;2023-11-22T05:01:04;99299.41;;;4.77;92.36
7760;BME280;3924;48.830;9.262;2023-11-22T05:03:31;99296.72;;;4.77;92.56
7760;BME280;3924;48.830;9.262;2023-11-22T05:05:57;99307.22;;;4.78;92.51
7760;BME280;3924;48.830;9.262;2023-11-22T05:08:42;99314.00;;;4.81;92.28
7760;BME280;3924;48.830;9.262;2023-11-22T05:11:08;99315.72;;;4.87;92.37
7760;BME280;3924;48.830;9.262;2023-11-22T05:13:36;99329.88;;;4.82;91.91
7760;BME280;3924;48.830;9.262;2023-11-22T05:16:02;99326.81;;;4.79;91.44
7760;BME280;3924;48.830;9.262;2023-11-22T05:18:29;99319.72;;;4.73;91.56
7760;BME280;3924;48.830;9.262;2023-11-22T05:20:56;99330.56;;;4.78;91.99
7760;BME280;3924;48.830;9.262;2023-11-22T05:23:22;99328.47;;;4.80;92.12
7760;BME280;3924;48.830;9.262;2023-11-22T05:25:49;99341.56;;;4.88;91.77
7760;BME280;3924;48.830;9.262;2023-11-22T05:28:15;99339.44;;;4.90;91.53
7760;BME280;3924;48.830;9.262;2023-11-22T05:30:42;99347.25;;;4.91;91.80
7760;BME280;3924;48.830;9.262;2023-11-22T05:33:09;99341.63;;;4.93;91.74
7760;BME280;3924;48.830;9.262;2023-11-22T05:35:35;99339.78;;;4.93;91.25
7760;BME280;3924;48.830;9.262;2023-11-22T05:38:02;99342.38;;;4.88;91.31
7760;BME280;3924;48.830;9.262;2023-11-22T05:40:28;99331.16;;;4.80;91.38
7760;BME280;3924;48.830;9.262;2023-11-22T05:42:55;99352.41;;;4.81;91.33
7760;BME280;3924;48.830;9.262;2023-11-22T05:45:22;99350.56;;;4.70;90.71
7760;BME280;3924;48.830;9.262;2023-11-22T05:47:50;99337.59;;;4.55;91.17
7760;BME280;3924;48.830;9.262;2023-11-22T05:50:16;99344.97;;;4.48;90.99
7760;BME280;3924;48.830;9.262;2023-11-22T05:52:44;99348.81;;;4.41;91.44
7760;BME280;3924;48.830;9.262;2023-11-22T05:55:10;99354.06;;;4.35;91.40
7760;BME280;3924;48.830;9.262;2023-11-22T05:57:40;99360.22;;;4.36;91.13
7760;BME280;3924;48.830;9.262;2023-11-22T06:00:08;99367.72;;;4.34;91.27
7760;BME280;3924;48.830;9.262;2023-11-22T06:02:34;99364.44;;;4.44;91.51
7760;BME280;3924;48.830;9.262;2023-11-22T06:05:01;99375.63;;;4.52;91.31
7760;BME280;3924;48.830;9.262;2023-11-22T06:07:28;99381.72;;;4.48;91.25
7760;BME280;3924;48.830;9.262;2023-11-22T06:09:55;99379.59;;;4.38;90.86
7760;BME280;3924;48.830;9.262;2023-11-22T06:12:22;99386.50;;;4.34;91.00
7760;BME280;3924;48.830;9.262;2023-11-22T06:14:48;99390.34;;;4.38;91.22
7760;BME280;3924;48.830;9.262;2023-11-22T06:17:15;99396.19;;;4.35;90.95
7760;BME280;3924;48.830;9.262;2023-11-22T06:19:41;99405.28;;;4.34;90.93
7760;BME280;3924;48.830;9.262;2023-11-22T06:22:08;99411.09;;;4.31;90.96
7760;BME280;3924;48.830;9.262;2023-11-22T06:24:35;99407.94;;;4.22;90.91
7760;BME280;3924;48.830;9.262;2023-11-22T06:27:02;99420.41;;;4.17;90.66
7760;BME280;3924;48.830;9.262;2023-11-22T06:29:30;99427.28;;;4.13;90.90
7760;BME280;3924;48.830;9.262;2023-11-22T06:31:56;99426.81;;;4.16;90.98
7760;BME280;3924;48.830;9.262;2023-11-22T06:34:23;99422.50;;;4.15;90.71
7760;BME280;3924;48.830;9.262;2023-11-22T06:36:49;99424.59;;;4.13;90.85
7760;BME280;3924;48.830;9.262;2023-11-22T06:39:16;99428.78;;;4.08;90.77
7760;BME280;3924;48.830;9.262;2023-11-22T06:41:43;99423.41;;;4.08;90.75
7760;BME280;3924;48.830;9.262;2023-11-22T06:44:10;99420.88;;;4.14;90.62
7760;BME280;3924;48.830;9.262;2023-11-22T06:46:36;99424.81;;;4.11;90.62
7760;BME280;3924;48.830;9.262;2023-11-22T06:49:03;99428.78;;;4.08;90.51
7760;BME280;3924;48.830;9.262;2023-11-22T06:51:30;99433.81;;;4.05;90.46
7760;BME280;3924;48.830;9.262;2023-11-22T06:53:56;99437.50;;;4.04;90.19
7760;BME280;3924;48.830;9.262;2023-11-22T06:56:24;99439.97;;;4.05;90.52
7760;BME280;3924;48.830;9.262;2023-11-22T06:58:50;99447.69;;;4.14;90.65
7760;BME280;3924;48.830;9.262;2023-11-22T07:01:17;99435.78;;;4.09;90.22
7760;BME280;3924;48.830;9.262;2023-11-22T07:03:44;99444.28;;;4.06;90.01
7760;BME280;3924;48.830;9.262;2023-11-22T07:06:11;99448.69;;;4.01;89.96
7760;BME280;3924;48.830;9.262;2023-11-22T07:08:37;99451.00;;;3.97;90.00
7760;BME280;3924;48.830;9.262;2023-11-22T07:11:04;99452.53;;;3.93;90.06
7760;BME280;3924;48.830;9.262;2023-11-22T07:13:31;99456.94;;;3.88;90.14
7760;BME280;3924;48.830;9.262;2023-11-22T07:19:58;99469.22;;;3.77;90.22
7760;BME280;3924;48.830;9.262;2023-11-22T07:22:25;99469.97;;;3.84;90.19
7760;BME280;3924;48.830;9.262;2023-11-22T07:24:52;99464.50;;;3.91;90.35
7760;BME280;3924;48.830;9.262;2023-11-22T07:27:20;99483.91;;;3.93;89.95
7760;BME280;3924;48.830;9.262;2023-11-22T07:29:48;99482.63;;;3.95;89.86
7760;BME280;3924;48.830;9.262;2023-11-22T07:32:18;99495.44;;;3.93;89.97
7760;BME280;3924;48.830;9.262;2023-11-22T07:34:46;99505.44;;;3.86;89.71
7760;BME280;3924;48.830;9.262;2023-11-22T07:37:13;99506.91;;;3.82;90.05
7760;BME280;3924;48.830;9.262;2023-11-22T07:39:41;99515.13;;;3.87;89.88
7760;BME280;3924;48.830;9.262;2023-11-22T07:42:09;99523.59;;;3.84;89.68
7760;BME280;3924;48.830;9.262;2023-11-22T07:44:36;99516.59;;;3.83;89.63
7760;BME280;3924;48.830;9.262;2023-11-22T07:47:04;99526.16;;;3.79;89.81
7760;BME280;3924;48.830;9.262;2023-11-22T07:49:38;99524.78;;;3.70;89.26
7760;BME280;3924;48.830;9.262;2023-11-22T07:52:05;99532.09;;;3.63;89.64
7760;BME280;3924;48.830;9.262;2023-11-22T07:54:33;99519.31;;;3.65;89.56
7760;BME280;3924;48.830;9.262;2023-11-22T07:57:01;99525.41;;;3.72;89.71
7760;BME280;3924;48.830;9.262;2023-11-22T07:59:28;99530.25;;;3.81;89.47
7760;BME280;3924;48.830;9.262;2023-11-22T08:02:11;99527.25;;;3.90;89.44
7760;BME280;3924;48.830;9.262;2023-11-22T08:04:38;99532.63;;;3.90;88.92
7760;BME280;3924;48.830;9.262;2023-11-22T08:07:07;99526.81;;;3.74;88.78
7760;BME280;3924;48.830;9.262;2023-11-22T08:09:34;99529.13;;;3.71;89.07
7760;BME280;3924;48.830;9.262;2023-11-22T08:12:00;99534.50;;;3.71;89.18
7760;BME280;3924;48.830;9.262;2023-11-22T08:14:32;99536.56;;;3.69;89.10
7760;BME280;3924;48.830;9.262;2023-11-22T08:16:59;99530.03;;;3.65;89.15
7760;BME280;3924;48.830;9.262;2023-11-22T08:19:25;99536.63;;;3.62;89.06
7760;BME280;3924;48.830;9.262;2023-11-22T08:21:53;99542.88;;;3.56;88.94
7760;BME280;3924;48.830;9.262;2023-11-22T08:24:20;99538.41;;;3.50;88.82
7760;BME280;3924;48.830;9.262;2023-11-22T08:26:47;99532.84;;;3.51;88.93
7760;BME280;3924;48.830;9.262;2023-11-22T08:29:13;99538.34;;;3.56;89.14
7760;BME280;3924;48.830;9.262;2023-11-22T08:31:41;99536.28;;;3.59;88.70
7760;BME280;3924;48.830;9.262;2023-11-22T08:34:07;99537.25;;;3.64;88.83
7760;BME280;3924;48.830;9.262;2023-11-22T08:36:35;99544.78;;;3.74;88.95
7760;BME280;3924;48.830;9.262;2023-11-22T08:39:02;99542.09;;;3.74;88.31
7760;BME280;3924;48.830;9.262;2023-11-22T08:41:30;99545.34;;;3.76;88.56
7760;BME280;3924;48.830;9.262;2023-11-22T08:43:58;99538.88;;;3.83;88.44
7760;BME280;3924;48.830;9.262;2023-11-22T08:46:24;99541.78;;;3.82;88.19
7760;BME280;3924;48.830;9.262;2023-11-22T08:48:51;99534.03;;;3.74;88.08
7760;BME280;3924;48.830;9.262;2023-11-22T08:51:18;99539.47;;;3.67;88.32
7760;BME280;3924;48.830;9.262;2023-11-22T08:53:44;99552.28;;;3.65;88.44
7760;BME280;3924;48.830;9.262;2023-11-22T08:56:11;99553.84;;;3.73;88.49
7760;BME280;3924;48.830;9.262;2023-11-22T08:58:39;99545.22;;;3.71;87.98
7760;BME280;3924;48.830;9.262;2023-11-22T09:01:06;99548.34;;;3.68;88.18
7760;BME280;3924;48.830;9.262;2023-11-22T09:03:33;99553.47;;;3.69;88.16
7760;BME280;3924;48.830;9.262;2023-11-22T09:06:00;99545.91;;;3.84;88.64
7760;BME280;3924;48.830;9.262;2023-11-22T09:08:27;99537.63;;;3.86;87.38
7760;BME280;3924;48.830;9.262;2023-11-22T09:10:56;99536.00;;;3.85;88.04
7760;BME280;3924;48.830;9.262;2023-11-22T09:13:23;99536.72;;;3.92;87.90
7760;BME280;3924;48.830;9.262;2023-11-22T09:15:51;99532.91;;;3.81;87.59
7760;BME280;3924;48.830;9.262;2023-11-22T09:18:17;99540.59;;;3.78;87.72
7760;BME280;3924;48.830;9.262;2023-11-22T09:20:44;99551.91;;;3.80;87.79
7760;BME280;3924;48.830;9.262;2023-11-22T09:23:11;99548.34;;;3.86;87.73
7760;BME280;3924;48.830;9.262;2023-11-22T09:25:38;99555.28;;;3.94;87.58
7760;BME280;3924;48.830;9.262;2023-11-22T09:28:05;99555.53;;;4.04;87.60
7760;BME280;3924;48.830;9.262;2023-11-22T09:30:33;99548.53;;;4.03;87.14
7760;BME280;3924;48.830;9.262;2023-11-22T09:33:10;99548.69;;;4.08;87.04
7760;BME280;3924;48.830;9.262;2023-11-22T09:35:38;99556.56;;;3.91;86.56
7760;BME280;3924;48.830;9.262;2023-11-22T09:38:07;99559.22;;;3.91;87.39
7760;BME280;3924;48.830;9.262;2023-11-22T09:43:10;99546.91;;;4.02;87.05
7760;BME280;3924;48.830;9.262;2023-11-22T09:45:37;99556.38;;;4.04;86.95
7760;BME280;3924;48.830;9.262;2023-11-22T09:48:14;99571.47;;;4.17;86.98
7760;BME280;3924;48.830;9.262;2023-11-22T09:50:56;99571.41;;;4.24;86.66
7760;BME280;3924;48.830;9.262;2023-11-22T09:53:41;99570.81;;;4.22;86.46
7760;BME280;3924;48.830;9.262;2023-11-22T09:56:11;99577.16;;;4.27;86.65
7760;BME280;3924;48.830;9.262;2023-11-22T09:58:41;99582.28;;;4.29;86.29
7760;BME280;3924;48.830;9.262;2023-11-22T10:01:11;99596.03;;;4.21;86.02
7760;BME280;3924;48.830;9.262;2023-11-22T10:03:40;99610.47;;;4.01;86.09
7760;BME280;3924;48.830;9.262;2023-11-22T10:06:07;99613.91;;;3.90;86.09
7760;BME280;3924;48.830;9.262;2023-11-22T10:08:33;99613.91;;;3.90;86.45
7760;BME280;3924;48.830;9.262;2023-11-22T10:11:03;99612.88;;;3.91;85.99
7760;BME280;3924;48.830;9.262;2023-11-22T10:13:30;99613.53;;;3.87;86.04
7760;BME280;3924;48.830;9.262;2023-11-22T10:16:11;99618.25;;;3.91;86.28
7760;BME280;3924;48.830;9.262;2023-11-22T10:18:43;99615.47;;;3.98;86.08
7760;BME280;3924;48.830;9.262;2023-11-22T10:21:22;99618.38;;;3.96;85.75
7760;BME280;3924;48.830;9.262;2023-11-22T10:23:48;99614.22;;;4.00;85.93
7760;BME280;3924;48.830;9.262;2023-11-22T10:26:18;99612.13;;;4.02;85.53
7760;BME280;3924;48.830;9.262;2023-11-22T10:28:45;99611.69;;;4.05;85.84
7760;BME280;3924;48.830;9.262;2023-11-22T10:31:11;99608.78;;;4.07;85.39
7760;BME280;3924;48.830;9.262;2023-11-22T10:33:40;99613.31;;;4.06;85.60
7760;BME280;3924;48.830;9.262;2023-11-22T10:36:09;99616.06;;;4.18;85.79
7760;BME280;3924;48.830;9.262;2023-11-22T10:38:36;99607.72;;;4.26;85.22
7760;BME280;3924;48.830;9.262;2023-11-22T10:41:07;99602.28;;;4.33;85.39
7760;BME280;3924;48.830;9.262;2023-11-22T10:43:35;99594.97;;;4.40;85.43
7760;BME280;3924;48.830;9.262;2023-11-22T10:46:05;99604.63;;;4.41;84.78
7760;BME280;3924;48.830;9.262;2023-11-22T10:48:32;99598.47;;;4.41;84.85
7760;BME280;3924;48.830;9.262;2023-11-22T10:51:01;99609.53;;;4.44;84.81
7760;BME280;3924;48.830;9.262;2023-11-22T10:53:38;99610.00;;;4.41;84.70
7760;BME280;3924;48.830;9.262;2023-11-22T10:56:15;99604.56;;;4.48;84.79
7760;BME280;3924;48.830;9.262;2023-11-22T10:58:48;99612.84;;;4.46;84.79
7760;BME280;3924;48.830;9.262;2023-11-22T11:01:16;99610.75;;;4.48;84.57
7760;BME280;3924;48.830;9.262;2023-11-22T11:03:46;99615.41;;;4.53;84.70
7760;BME280;3924;48.830;9.262;2023-11-22T11:06:20;99617.66;;;4.56;84.48
7760;BME280;3924;48.830;9.262;2023-11-22T11:08:55;99622.38;;;4.60;84.19
7760;BME280;3924;48.830;9.262;2023-11-22T11:11:23;99633.09;;;4.60;84.28
7760;BME280;3924;48.830;9.262;2023-11-22T11:13:51;99637.41;;;4.61;84.20
7760;BME280;3924;48.830;9.262;2023-11-22T11:16:20;99635.63;;;4.55;84.11
7760;BME280;3924;48.830;9.262;2023-11-22T11:18:47;99634.69;;;4.50;84.05
7760;BME280;3924;48.830;9.262;2023-11-22T11:21:15;99631.41;;;4.48;83.97
7760;BME280;3924;48.830;9.262;2023-11-22T11:23:43;99630.94;;;4.51;84.09
7760;BME280;3924;48.830;9.262;2023-11-22T11:26:16;99632.94;;;4.55;84.02
7760;BME280;3924;48.830;9.262;2023-11-22T11:28:49;99632.31;;;4.42;83.39
7760;BME280;3924;48.830;9.262;2023-11-22T11:31:17;99629.69;;;4.35;84.17
7760;BME280;3924;48.830;9.262;2023-11-22T11:36:30;99631.75;;;4.51;83.76
7760;BME280;3924;48.830;9.262;2023-11-22T11:39:03;99631.31;;;4.54;83.31
7760;BME280;3924;48.830;9.262;2023-11-22T11:41:33;99629.47;;;4.36;83.21
7760;BME280;3924;48.830;9.262;2023-11-22T11:44:02;99632.22;;;4.30;83.96
7760;BME280;3924;48.830;9.262;2023-11-22T11:46:30;99638.06;;;4.27;83.78
7760;BME280;3924;48.830;9.262;2023-11-22T11:48:57;99639.13;;;4.26;83.58
7760;BME280;3924;48.830;9.262;2023-11-22T11:51:27;99654.75;;;4.29;83.84
7760;BME280;3924;48.830;9.262;2023-11-22T11:53:55;99659.53;;;4.27;83.12
7760;BME280;3924;48.830;9.262;2023-11-22T11:56:22;99655.66;;;4.23;83.27
7760;BME280;3924;48.830;9.262;2023-11-22T11:58:56;99652.22;;;4.16;83.30
7760;BME280;3924;48.830;9.262;2023-11-22T12:01:28;99663.69;;;4.23;83.87
7760;BME280;3924;48.830;9.262;2023-11-22T12:03:56;99666.06;;;4.31;83.25
7760;BME280;3924;48.830;9.262;2023-11-22T12:06:22;99666.81;;;4.38;83.02
7760;BME280;3924;48.830;9.262;2023-11-22T12:08:49;99673.00;;;4.38;83.35
7760;BME280;3924;48.830;9.262;2023-11-22T12:11:16;99688.28;;;4.56;83.09
7760;BME280;3924;48.830;9.262;2023-11-22T12:13:44;99682.47;;;4.59;82.83
7760;BME280;3924;48.830;9.262;2023-11-22T12:16:16;99680.63;;;4.42;82.45
7760;BME280;3924;48.830;9.262;2023-11-22T12:18:48;99680.13;;;4.33;82.97
7760;BME280;3924;48.830;9.262;2023-11-22T12:21:16;99693.06;;;4.36;82.77
7760;BME280;3924;48.830;9.262;2023-11-22T12:23:43;99707.31;;;4.36;82.86
7760;BME280;3924;48.830;9.262;2023-11-22T12:26:13;99707.53;;;4.35;82.85
7760;BME280;3924;48.830;9.262;2023-11-22T12:28:41;99707.63;;;4.28;82.45
7760;BME280;3924;48.830;9.262;2023-11-22T12:31:19;99703.94;;;4.23;82.70
7760;BME280;3924;48.830;9.262;2023-11-22T12:33:45;99715.50;;;4.23;82.74
7760;BME280;3924;48.830;9.262;2023-11-22T12:36:17;99714.38;;;4.31;82.54
7760;BME280;3924;48.830;9.262;2023-11-22T12:38:43;99705.97;;;4.27;82.10
7760;BME280;3924;48.830;9.262;2023-11-22T12:41:27;99704.84;;;4.17;82.32
7760;BME280;3924;48.830;9.262;2023-11-22T12:44:06;99704.78;;;4.05;82.58
7760;BME280;3924;48.830;9.262;2023-11-22T12:46:52;99695.13;;;3.97;82.56
7760;BME280;3924;48.830;9.262;2023-11-22T12:49:28;99692.59;;;4.02;82.78
7760;BME280;3924;48.830;9.262;2023-11-22T12:51:57;99681.72;;;4.16;82.41
7760;BME280;3924;48.830;9.262;2023-11-22T12:54:24;99690.53;;;4.23;82.32
7760;BME280;3924;48.830;9.262;2023-11-22T12:56:51;99694.03;;;4.23;82.08
7760;BME280;3924;48.830;9.262;2023-11-22T12:59:24;99694.78;;;4.30;82.24
7760;BME280;3924;48.830;9.262;2023-11-22T13:01:54;99679.41;;;4.37;81.92
7760;BME280;3924;48.830;9.262;2023-11-22T13:04:21;99672.00;;;4.39;81.86
7760;BME280;3924;48.830;9.262;2023-11-22T13:06:48;99675.25;;;4.42;81.52
7760;BME280;3924;48.830;9.262;2023-11-22T13:09:14;99676.53;;;4.21;81.39
7760;BME280;3924;48.830;9.262;2023-11-22T13:11:42;99681.31;;;4.19;81.74
7760;BME280;3924;48.830;9.262;2023-11-22T13:14:10;99683.31;;;4.23;81.87
7760;BME280;3924;48.830;9.262;2023-11-22T13:16:40;99680.91;;;4.15;81.42
7760;BME280;3924;48.830;9.262;2023-11-22T13:19:07;99683.22;;;4.11;81.55
7760;BME280;3924;48.830;9.262;2023-11-22T13:21:35;99684.25;;;4.10;81.77
7760;BME280;3924;48.830;9.262;2023-11-22T13:24:02;99692.59;;;4.02;81.35
7760;BME280;3924;48.830;9.262;2023-11-22T13:26:31;99698.84;;;3.96;81.64
7760;BME280;3924;48.830;9.262;2023-11-22T13:28:57;99697.97;;;4.02;81.67
7760;BME280;3924;48.830;9.262;2023-11-22T13:31:25;99712.59;;;4.06;81.18
7760;BME280;3924;48.830;9.262;2023-11-22T13:33:51;99711.59;;;4.01;81.49
7760;BME280;3924;48.830;9.262;2023-11-22T13:36:18;99708.41;;;3.92;81.18
7760;BME280;3924;48.830;9.262;2023-11-22T13:38:44;99705.78;;;3.86;81.51
7760;BME280;3924;48.830;9.262;2023-11-22T13:41:11;99700.59;;;3.84;81.52
7760;BME280;3924;48.830;9.262;2023-11-22T13:43:38;99687.06;;;3.79;81.44
7760;BME280;3924;48.830;9.262;2023-11-22T13:46:06;99694.94;;;3.74;81.43